sensor_id;sensor_type;location;lat;lon;timestamp;temperature;humidity
29201;DHT22;16244;51.956;12.980;2023-04-24T00:01:30;11.30;99.90
29201;DHT22;16244;51.956;12.980;2023-04-24T00:03:58;11.30;99.90
29201;DHT22;16244;51.956;12.980;2023-04-24T00:06:27;11.40;99.90
29201;DHT22;16244;51.956;12.980;2023-04-24T00:08:59;11.50;99.90
29201;DHT22;16244;51.956;12.980;2023-04-24T00:11:27;11.50;99.90
29201;DHT22;16244;51.956;12.980;2023-04-24T00:13:55;11.50;99.90
29201;DHT22;16244;51.956;12.980;2023-04-24T00:16:23;11.60;99.90
29201;DHT22;16244;51.956;12.980;2023-04-24T00:18:50;11.60;99.90
29201;DHT22;16244;51.956;12.980;2023-04-24T00:21:19;11.60;99.90
29201;DHT22;16244;51.956;12.980;2023-04-24T00:23:48;11.60;99.90
29201;DHT22;16244;51.956;12.980;2023-04-24T00:26:16;11.70;99.90
29201;DHT22;16244;51.956;12.980;2023-04-24T00:28:44;11.80;99.90
29201;DHT22;16244;51.956;12.980;2023-04-24T00:31:12;11.80;99.90
29201;DHT22;16244;51.956;12.980;2023-04-24T00:33:39;11.80;99.90
29201;DHT22;16244;51.956;12.980;2023-04-24T00:36:07;11.90;99.90
29201;DHT22;16244;51.956;12.980;2023-04-24T00:38:35;11.90;99.90
29201;DHT22;16244;51.956;12.980;2023-04-24T00:41:04;11.90;99.90
29201;DHT22;16244;51.956;12.980;2023-04-24T00:43:31;11.90;99.90
29201;DHT22;16244;51.956;12.980;2023-04-24T00:45:59;11.90;99.90
29201;DHT22;16244;51.956;12.980;2023-04-24T00:48:27;11.90;99.90
29201;DHT22;16244;51.956;12.980;2023-04-24T00:50:55;11.80;99.90
29201;DHT22;16244;51.956;12.980;2023-04-24T00:53:23;11.90;99.90
29201;DHT22;16244;51.956;12.980;2023-04-24T00:55:51;11.90;99.90
29201;DHT22;16244;51.956;12.980;2023-04-24T00:58:20;11.90;99.90
29201;DHT22;16244;51.956;12.980;2023-04-24T01:00:49;11.80;99.90
29201;DHT22;16244;51.956;12.980;2023-04-24T01:03:19;11.80;99.90
29201;DHT22;16244;51.956;12.980;2023-04-24T01:05:49;11.80;99.90
29201;DHT22;16244;51.956;12.980;2023-04-24T01:08:17;11.90;99.90
29201;DHT22;16244;51.956;12.980;2023-04-24T01:10:44;11.80;99.90
29201;DHT22;16244;51.956;12.980;2023-04-24T01:13:13;11.80;99.90
29201;DHT22;16244;51.956;12.980;2023-04-24T01:15:42;11.80;99.90
29201;DHT22;16244;51.956;12.980;2023-04-24T01:18:10;11.80;99.90
29201;DHT22;16244;51.956;12.980;2023-04-24T01:20:39;11.90;99.90
29201;DHT22;16244;51.956;12.980;2023-04-24T01:23:09;11.90;99.90
29201;DHT22;16244;51.956;12.980;2023-04-24T01:25:40;11.90;99.90
29201;DHT22;16244;51.956;12.980;2023-04-24T01:28:08;11.90;99.90
29201;DHT22;16244;51.956;12.980;2023-04-24T01:30:35;11.90;99.90
29201;DHT22;16244;51.956;12.980;2023-04-24T01:33:03;11.90;99.90
29201;DHT22;16244;51.956;12.980;2023-04-24T01:35:31;11.90;99.90
29201;DHT22;16244;51.956;12.980;2023-04-24T01:37:59;11.90;99.90
29201;DHT22;16244;51.956;12.980;2023-04-24T01:40:28;11.90;99.90
29201;DHT22;16244;51.956;12.980;2023-04-24T01:42:55;11.80;99.90
29201;DHT22;16244;51.956;12.980;2023-04-24T01:45:25;11.80;99.90
29201;DHT22;16244;51.956;12.980;2023-04-24T01:47:52;11.80;99.90
29201;DHT22;16244;51.956;12.980;2023-04-24T01:50:20;11.80;99.90
29201;DHT22;16244;51.956;12.980;2023-04-24T01:52:48;11.70;99.90
29201;DHT22;16244;51.956;12.980;2023-04-24T01:55:16;11.60;99.90
29201;DHT22;16244;51.956;12.980;2023-04-24T01:57:45;11.60;99.90
29201;DHT22;16244;51.956;12.980;2023-04-24T02:00:13;11.60;99.90
29201;DHT22;16244;51.956;12.980;2023-04-24T02:02:41;11.60;99.90
29201;DHT22;16244;51.956;12.980;2023-04-24T02:05:09;11.60;99.90
29201;DHT22;16244;51.956;12.980;2023-04-24T02:07:37;11.60;99.90
29201;DHT22;16244;51.956;12.980;2023-04-24T02:10:05;11.70;99.90
29201;DHT22;16244;51.956;12.980;2023-04-24T02:12:33;11.70;99.90
29201;DHT22;16244;51.956;12.980;2023-04-24T02:15:02;11.70;99.90
29201;DHT22;16244;51.956;12.980;2023-04-24T02:17:30;11.80;99.90
29201;DHT22;16244;51.956;12.980;2023-04-24T02:19:58;11.80;99.90
29201;DHT22;16244;51.956;12.980;2023-04-24T02:22:25;11.80;99.90
29201;DHT22;16244;51.956;12.980;2023-04-24T02:24:53;11.80;99.90
29201;DHT22;16244;51.956;12.980;2023-04-24T02:27:20;11.80;99.90
29201;DHT22;16244;51.956;12.980;2023-04-24T02:29:48;11.90;99.90
29201;DHT22;16244;51.956;12.980;2023-04-24T02:32:17;11.90;99.90
29201;DHT22;16244;51.956;12.980;2023-04-24T02:34:48;11.80;99.90
29201;DHT22;16244;51.956;12.980;2023-04-24T02:37:17;11.90;99.90
29201;DHT22;16244;51.956;12.980;2023-04-24T02:39:45;11.80;99.90
29201;DHT22;16244;51.956;12.980;2023-04-24T02:42:12;11.90;99.90
29201;DHT22;16244;51.956;12.980;2023-04-24T02:44:41;11.80;99.90
29201;DHT22;16244;51.956;12.980;2023-04-24T02:47:09;11.80;99.90
29201;DHT22;16244;51.956;12.980;2023-04-24T02:49:38;11.80;99.90
29201;DHT22;16244;51.956;12.980;2023-04-24T02:52:05;11.80;99.90
29201;DHT22;16244;51.956;12.980;2023-04-24T02:54:33;11.80;99.90
29201;DHT22;16244;51.956;12.980;2023-04-24T02:57:00;11.80;99.90
29201;DHT22;16244;51.956;12.980;2023-04-24T02:59:28;11.70;99.90
29201;DHT22;16244;51.956;12.980;2023-04-24T03:01:56;11.70;99.90
29201;DHT22;16244;51.956;12.980;2023-04-24T03:04:24;11.70;99.90
29201;DHT22;16244;51.956;12.980;2023-04-24T03:06:53;11.60;99.90
29201;DHT22;16244;51.956;12.980;2023-04-24T03:09:22;11.60;99.90
29201;DHT22;16244;51.956;12.980;2023-04-24T03:11:50;11.60;99.90
29201;DHT22;16244;51.956;12.980;2023-04-24T03:14:17;11.50;99.90
29201;DHT22;16244;51.956;12.980;2023-04-24T03:16:50;11.50;99.90
29201;DHT22;16244;51.956;12.980;2023-04-24T03:19:22;11.40;99.90
29201;DHT22;16244;51.956;12.980;2023-04-24T03:21:52;11.40;99.90
29201;DHT22;16244;51.956;12.980;2023-04-24T03:24:20;11.40;99.90
29201;DHT22;16244;51.956;12.980;2023-04-24T03:26:49;11.30;99.90
29201;DHT22;16244;51.956;12.980;2023-04-24T03:29:16;11.30;99.90
29201;DHT22;16244;51.956;12.980;2023-04-24T03:31:44;11.20;99.90
29201;DHT22;16244;51.956;12.980;2023-04-24T03:34:12;11.20;99.90
29201;DHT22;16244;51.956;12.980;2023-04-24T03:36:39;11.20;99.90
29201;DHT22;16244;51.956;12.980;2023-04-24T03:39:07;11.10;99.90
29201;DHT22;16244;51.956;12.980;2023-04-24T03:41:36;11.10;99.90
29201;DHT22;16244;51.956;12.980;2023-04-24T03:44:04;11.00;99.90
29201;DHT22;16244;51.956;12.980;2023-04-24T03:46:31;10.90;99.90
29201;DHT22;16244;51.956;12.980;2023-04-24T03:48:58;10.90;99.90
29201;DHT22;16244;51.956;12.980;2023-04-24T03:51:26;10.80;99.90
29201;DHT22;16244;51.956;12.980;2023-04-24T03:53:56;10.80;99.90
29201;DHT22;16244;51.956;12.980;2023-04-24T03:56:24;10.70;99.90
29201;DHT22;16244;51.956;12.980;2023-04-24T03:58:53;10.70;99.90
29201;DHT22;16244;51.956;12.980;2023-04-24T04:01:21;10.70;99.90
29201;DHT22;16244;51.956;12.980;2023-04-24T04:03:48;10.70;99.90
29201;DHT22;16244;51.956;12.980;2023-04-24T04:06:16;10.70;99.90
29201;DHT22;16244;51.956;12.980;2023-04-24T04:08:45;10.80;99.90
29201;DHT22;16244;51.956;12.980;2023-04-24T04:11:13;10.80;99.90
29201;DHT22;16244;51.956;12.980;2023-04-24T04:13:40;10.70;99.90
29201;DHT22;16244;51.956;12.980;2023-04-24T04:16:10;10.80;99.90
29201;DHT22;16244;51.956;12.980;2023-04-24T04:18:37;10.80;99.90
29201;DHT22;16244;51.956;12.980;2023-04-24T04:21:05;10.80;99.90
29201;DHT22;16244;51.956;12.980;2023-04-24T04:23:32;10.80;99.90
29201;DHT22;16244;51.956;12.980;2023-04-24T04:26:00;10.70;99.90
29201;DHT22;16244;51.956;12.980;2023-04-24T04:28:29;10.80;99.90
29201;DHT22;16244;51.956;12.980;2023-04-24T04:30:59;10.70;99.90
29201;DHT22;16244;51.956;12.980;2023-04-24T04:33:30;10.70;99.90
29201;DHT22;16244;51.956;12.980;2023-04-24T04:35:57;10.70;99.90
29201;DHT22;16244;51.956;12.980;2023-04-24T04:38:26;10.70;99.90
29201;DHT22;16244;51.956;12.980;2023-04-24T04:40:56;10.70;99.90
29201;DHT22;16244;51.956;12.980;2023-04-24T04:43:24;10.70;99.90
29201;DHT22;16244;51.956;12.980;2023-04-24T04:45:52;10.80;99.90
29201;DHT22;16244;51.956;12.980;2023-04-24T04:48:21;10.80;99.90
29201;DHT22;16244;51.956;12.980;2023-04-24T04:50:49;10.80;99.90
29201;DHT22;16244;51.956;12.980;2023-04-24T04:53:17;10.80;99.90
29201;DHT22;16244;51.956;12.980;2023-04-24T04:55:45;10.80;99.90
29201;DHT22;16244;51.956;12.980;2023-04-24T04:58:14;10.90;99.90
29201;DHT22;16244;51.956;12.980;2023-04-24T05:00:42;10.90;99.90
29201;DHT22;16244;51.956;12.980;2023-04-24T05:03:09;11.00;99.90
29201;DHT22;16244;51.956;12.980;2023-04-24T05:05:37;11.00;99.90
29201;DHT22;16244;51.956;12.980;2023-04-24T05:08:08;11.00;99.90
29201;DHT22;16244;51.956;12.980;2023-04-24T05:10:36;11.00;99.90
29201;DHT22;16244;51.956;12.980;2023-04-24T05:13:04;11.10;99.90
29201;DHT22;16244;51.956;12.980;2023-04-24T05:15:39;11.10;99.90
29201;DHT22;16244;51.956;12.980;2023-04-24T05:18:07;11.00;99.90
29201;DHT22;16244;51.956;12.980;2023-04-24T05:20:34;11.10;99.90
29201;DHT22;16244;51.956;12.980;2023-04-24T05:23:02;11.10;99.90
29201;DHT22;16244;51.956;12.980;2023-04-24T05:25:31;11.20;99.90
29201;DHT22;16244;51.956;12.980;2023-04-24T05:28:01;11.20;99.90
29201;DHT22;16244;51.956;12.980;2023-04-24T05:30:28;11.30;99.90
29201;DHT22;16244;51.956;12.980;2023-04-24T05:32:56;11.30;99.90
29201;DHT22;16244;51.956;12.980;2023-04-24T05:35:25;11.40;99.90
29201;DHT22;16244;51.956;12.980;2023-04-24T05:37:53;11.50;99.90
29201;DHT22;16244;51.956;12.980;2023-04-24T05:40:20;11.60;99.90
29201;DHT22;16244;51.956;12.980;2023-04-24T05:42:49;11.50;99.90
29201;DHT22;16244;51.956;12.980;2023-04-24T05:45:17;11.50;99.90
29201;DHT22;16244;51.956;12.980;2023-04-24T05:47:44;11.70;99.90
29201;DHT22;16244;51.956;12.980;2023-04-24T05:50:13;11.80;99.90
29201;DHT22;16244;51.956;12.980;2023-04-24T05:52:41;11.90;99.90
29201;DHT22;16244;51.956;12.980;2023-04-24T05:55:10;12.10;99.90
29201;DHT22;16244;51.956;12.980;2023-04-24T05:57:37;12.30;99.90
29201;DHT22;16244;51.956;12.980;2023-04-24T06:00:07;12.50;99.90
29201;DHT22;16244;51.956;12.980;2023-04-24T06:02:40;12.60;99.90
29201;DHT22;16244;51.956;12.980;2023-04-24T06:05:08;12.80;99.90
29201;DHT22;16244;51.956;12.980;2023-04-24T06:07:37;12.80;99.90
29201;DHT22;16244;51.956;12.980;2023-04-24T06:10:05;12.90;99.90
29201;DHT22;16244;51.956;12.980;2023-04-24T06:12:33;12.90;99.90
29201;DHT22;16244;51.956;12.980;2023-04-24T06:15:01;13.00;99.90
29201;DHT22;16244;51.956;12.980;2023-04-24T06:17:30;13.10;99.90
29201;DHT22;16244;51.956;12.980;2023-04-24T06:19:58;13.10;99.90
29201;DHT22;16244;51.956;12.980;2023-04-24T06:22:25;13.20;99.90
29201;DHT22;16244;51.956;12.980;2023-04-24T06:24:55;13.20;99.90
29201;DHT22;16244;51.956;12.980;2023-04-24T06:27:23;13.20;99.90
29201;DHT22;16244;51.956;12.980;2023-04-24T06:29:50;13.40;99.90
29201;DHT22;16244;51.956;12.980;2023-04-24T06:32:21;13.40;99.90
29201;DHT22;16244;51.956;12.980;2023-04-24T06:34:50;13.30;99.90
29201;DHT22;16244;51.956;12.980;2023-04-24T06:37:19;13.30;99.90
29201;DHT22;16244;51.956;12.980;2023-04-24T06:39:47;13.50;99.90
29201;DHT22;16244;51.956;12.980;2023-04-24T06:42:15;13.80;99.90
29201;DHT22;16244;51.956;12.980;2023-04-24T06:44:42;14.00;99.90
29201;DHT22;16244;51.956;12.980;2023-04-24T06:47:10;14.20;99.90
29201;DHT22;16244;51.956;12.980;2023-04-24T06:49:40;14.40;99.90
29201;DHT22;16244;51.956;12.980;2023-04-24T06:52:09;14.60;99.90
29201;DHT22;16244;51.956;12.980;2023-04-24T06:54:36;14.80;99.90
29201;DHT22;16244;51.956;12.980;2023-04-24T06:57:04;14.90;99.90
29201;DHT22;16244;51.956;12.980;2023-04-24T06:59:32;15.10;99.90
29201;DHT22;16244;51.956;12.980;2023-04-24T07:01:59;15.20;99.90
29201;DHT22;16244;51.956;12.980;2023-04-24T07:04:27;15.20;99.90
29201;DHT22;16244;51.956;12.980;2023-04-24T07:06:56;15.40;99.90
29201;DHT22;16244;51.956;12.980;2023-04-24T07:09:27;15.70;99.90
29201;DHT22;16244;51.956;12.980;2023-04-24T07:11:56;15.80;98.90
29201;DHT22;16244;51.956;12.980;2023-04-24T07:14:23;16.20;98.80
29201;DHT22;16244;51.956;12.980;2023-04-24T07:16:51;16.60;98.20
29201;DHT22;16244;51.956;12.980;2023-04-24T07:19:18;16.60;94.80
29201;DHT22;16244;51.956;12.980;2023-04-24T07:21:46;16.70;95.60
29201;DHT22;16244;51.956;12.980;2023-04-24T07:24:13;17.00;93.60
29201;DHT22;16244;51.956;12.980;2023-04-24T07:26:43;17.00;94.10
29201;DHT22;16244;51.956;12.980;2023-04-24T07:29:13;17.10;91.30
29201;DHT22;16244;51.956;12.980;2023-04-24T07:31:40;17.00;92.50
29201;DHT22;16244;51.956;12.980;2023-04-24T07:34:08;17.00;91.30
29201;DHT22;16244;51.956;12.980;2023-04-24T07:36:36;16.90;92.30
29201;DHT22;16244;51.956;12.980;2023-04-24T07:39:04;16.90;90.90
29201;DHT22;16244;51.956;12.980;2023-04-24T07:41:32;16.50;89.50
29201;DHT22;16244;51.956;12.980;2023-04-24T07:44:00;16.30;91.70
29201;DHT22;16244;51.956;12.980;2023-04-24T07:46:29;16.00;91.80
29201;DHT22;16244;51.956;12.980;2023-04-24T07:48:57;15.70;94.30
29201;DHT22;16244;51.956;12.980;2023-04-24T07:51:27;15.60;94.70
29201;DHT22;16244;51.956;12.980;2023-04-24T07:53:55;15.60;94.00
29201;DHT22;16244;51.956;12.980;2023-04-24T07:56:23;15.60;95.90
29201;DHT22;16244;51.956;12.980;2023-04-24T07:58:51;15.40;95.20
29201;DHT22;16244;51.956;12.980;2023-04-24T08:01:21;15.40;92.50
29201;DHT22;16244;51.956;12.980;2023-04-24T08:03:50;15.50;94.50
29201;DHT22;16244;51.956;12.980;2023-04-24T08:06:18;15.50;93.50
29201;DHT22;16244;51.956;12.980;2023-04-24T08:08:47;15.50;94.40
29201;DHT22;16244;51.956;12.980;2023-04-24T08:11:18;15.70;95.70
29201;DHT22;16244;51.956;12.980;2023-04-24T08:13:47;15.60;93.60
29201;DHT22;16244;51.956;12.980;2023-04-24T08:16:17;15.60;93.80
29201;DHT22;16244;51.956;12.980;2023-04-24T08:18:47;15.60;93.90
29201;DHT22;16244;51.956;12.980;2023-04-24T08:21:15;15.60;93.00
29201;DHT22;16244;51.956;12.980;2023-04-24T08:23:46;15.50;94.50
29201;DHT22;16244;51.956;12.980;2023-04-24T08:26:14;15.50;94.10
29201;DHT22;16244;51.956;12.980;2023-04-24T08:28:43;15.50;92.70
29201;DHT22;16244;51.956;12.980;2023-04-24T08:31:12;15.40;94.80
29201;DHT22;16244;51.956;12.980;2023-04-24T08:33:41;15.50;93.60
29201;DHT22;16244;51.956;12.980;2023-04-24T08:36:17;15.60;94.40
29201;DHT22;16244;51.956;12.980;2023-04-24T08:38:45;15.50;93.30
29201;DHT22;16244;51.956;12.980;2023-04-24T08:41:14;15.60;92.70
29201;DHT22;16244;51.956;12.980;2023-04-24T08:43:42;15.60;93.70
29201;DHT22;16244;51.956;12.980;2023-04-24T08:46:11;15.70;92.70
29201;DHT22;16244;51.956;12.980;2023-04-24T08:48:40;15.90;93.80
29201;DHT22;16244;51.956;12.980;2023-04-24T08:51:08;16.20;92.90
29201;DHT22;16244;51.956;12.980;2023-04-24T08:53:39;16.30;90.00
29201;DHT22;16244;51.956;12.980;2023-04-24T08:56:08;16.50;90.90
29201;DHT22;16244;51.956;12.980;2023-04-24T08:58:37;16.70;90.00
29201;DHT22;16244;51.956;12.980;2023-04-24T09:01:06;16.90;84.40
29201;DHT22;16244;51.956;12.980;2023-04-24T09:03:36;17.20;85.10
29201;DHT22;16244;51.956;12.980;2023-04-24T09:06:08;17.70;82.30
29201;DHT22;16244;51.956;12.980;2023-04-24T09:08:39;18.20;76.20
29201;DHT22;16244;51.956;12.980;2023-04-24T09:11:10;18.70;75.70
29201;DHT22;16244;51.956;12.980;2023-04-24T09:13:39;19.00;74.70
29201;DHT22;16244;51.956;12.980;2023-04-24T09:16:06;19.30;71.90
29201;DHT22;16244;51.956;12.980;2023-04-24T09:18:34;19.40;69.00
29201;DHT22;16244;51.956;12.980;2023-04-24T09:21:06;19.30;66.60
29201;DHT22;16244;51.956;12.980;2023-04-24T09:23:35;18.80;69.40
29201;DHT22;16244;51.956;12.980;2023-04-24T09:26:05;18.50;73.20
29201;DHT22;16244;51.956;12.980;2023-04-24T09:28:36;18.90;71.90
29201;DHT22;16244;51.956;12.980;2023-04-24T09:31:07;19.40;72.40
29201;DHT22;16244;51.956;12.980;2023-04-24T09:33:37;19.50;67.90
29201;DHT22;16244;51.956;12.980;2023-04-24T09:36:06;19.00;67.80
29201;DHT22;16244;51.956;12.980;2023-04-24T09:38:35;18.50;72.90
29201;DHT22;16244;51.956;12.980;2023-04-24T09:41:06;18.30;74.60
29201;DHT22;16244;51.956;12.980;2023-04-24T09:43:35;18.50;71.60
29201;DHT22;16244;51.956;12.980;2023-04-24T09:46:08;19.10;66.70
29201;DHT22;16244;51.956;12.980;2023-04-24T09:48:39;19.70;65.30
29201;DHT22;16244;51.956;12.980;2023-04-24T09:51:07;20.00;63.00
29201;DHT22;16244;51.956;12.980;2023-04-24T09:53:37;19.60;60.40
29201;DHT22;16244;51.956;12.980;2023-04-24T09:56:10;18.90;67.70
29201;DHT22;16244;51.956;12.980;2023-04-24T09:58:38;18.40;67.80
29201;DHT22;16244;51.956;12.980;2023-04-24T10:01:06;17.90;74.70
29201;DHT22;16244;51.956;12.980;2023-04-24T10:03:34;17.60;74.90
29201;DHT22;16244;51.956;12.980;2023-04-24T10:06:04;17.20;76.00
29201;DHT22;16244;51.956;12.980;2023-04-24T10:08:35;16.90;79.50
29201;DHT22;16244;51.956;12.980;2023-04-24T10:11:03;16.70;82.40
29201;DHT22;16244;51.956;12.980;2023-04-24T10:13:33;16.60;86.30
29201;DHT22;16244;51.956;12.980;2023-04-24T10:16:03;16.50;86.80
29201;DHT22;16244;51.956;12.980;2023-04-24T10:18:32;16.30;90.00
29201;DHT22;16244;51.956;12.980;2023-04-24T10:21:01;16.10;93.10
29201;DHT22;16244;51.956;12.980;2023-04-24T10:23:30;15.90;93.60
29201;DHT22;16244;51.956;12.980;2023-04-24T10:25:59;15.70;95.30
29201;DHT22;16244;51.956;12.980;2023-04-24T10:28:28;15.80;93.70
29201;DHT22;16244;51.956;12.980;2023-04-24T10:31:00;16.00;94.50
29201;DHT22;16244;51.956;12.980;2023-04-24T10:33:29;16.30;92.60
29201;DHT22;16244;51.956;12.980;2023-04-24T10:35:57;16.50;90.40
29201;DHT22;16244;51.956;12.980;2023-04-24T10:38:26;16.70;91.40
29201;DHT22;16244;51.956;12.980;2023-04-24T10:41:06;16.60;87.40
29201;DHT22;16244;51.956;12.980;2023-04-24T10:43:34;16.50;81.90
29201;DHT22;16244;51.956;12.980;2023-04-24T10:46:05;16.50;89.20
29201;DHT22;16244;51.956;12.980;2023-04-24T10:48:33;16.50;85.50
29201;DHT22;16244;51.956;12.980;2023-04-24T10:51:04;16.60;81.50
29201;DHT22;16244;51.956;12.980;2023-04-24T10:53:35;16.50;77.40
29201;DHT22;16244;51.956;12.980;2023-04-24T10:56:04;16.50;77.10
29201;DHT22;16244;51.956;12.980;2023-04-24T10:58:37;16.40;77.60
29201;DHT22;16244;51.956;12.980;2023-04-24T11:01:23;16.50;77.80
29201;DHT22;16244;51.956;12.980;2023-04-24T11:03:55;16.80;75.90
29201;DHT22;16244;51.956;12.980;2023-04-24T11:06:28;16.80;73.60
29201;DHT22;16244;51.956;12.980;2023-04-24T11:09:02;16.90;72.30
29201;DHT22;16244;51.956;12.980;2023-04-24T11:11:32;17.00;73.30
29201;DHT22;16244;51.956;12.980;2023-04-24T11:14:05;17.00;73.20
29201;DHT22;16244;51.956;12.980;2023-04-24T11:16:38;16.90;65.50
29201;DHT22;16244;51.956;12.980;2023-04-24T11:19:08;16.80;69.60
29201;DHT22;16244;51.956;12.980;2023-04-24T11:21:41;16.90;70.40
29201;DHT22;16244;51.956;12.980;2023-04-24T11:24:29;16.70;65.40
29201;DHT22;16244;51.956;12.980;2023-04-24T11:26:59;16.70;64.50
29201;DHT22;16244;51.956;12.980;2023-04-24T11:29:47;16.70;61.00
29201;DHT22;16244;51.956;12.980;2023-04-24T11:32:24;16.70;60.70
29201;DHT22;16244;51.956;12.980;2023-04-24T11:34:55;16.70;60.60
29201;DHT22;16244;51.956;12.980;2023-04-24T11:37:24;16.80;61.70
29201;DHT22;16244;51.956;12.980;2023-04-24T11:39:53;16.80;60.20
29201;DHT22;16244;51.956;12.980;2023-04-24T11:42:22;16.80;62.10
29201;DHT22;16244;51.956;12.980;2023-04-24T11:44:53;16.70;64.30
29201;DHT22;16244;51.956;12.980;2023-04-24T11:47:29;16.80;58.10
29201;DHT22;16244;51.956;12.980;2023-04-24T11:49:57;17.10;56.00
29201;DHT22;16244;51.956;12.980;2023-04-24T11:52:25;17.20;53.10
29201;DHT22;16244;51.956;12.980;2023-04-24T11:54:53;16.80;52.60
29201;DHT22;16244;51.956;12.980;2023-04-24T11:57:25;16.60;54.90
29201;DHT22;16244;51.956;12.980;2023-04-24T11:59:59;16.70;57.20
29201;DHT22;16244;51.956;12.980;2023-04-24T12:02:28;16.90;54.90
29201;DHT22;16244;51.956;12.980;2023-04-24T12:04:56;17.00;55.20
29201;DHT22;16244;51.956;12.980;2023-04-24T12:07:24;17.00;50.60
29201;DHT22;16244;51.956;12.980;2023-04-24T12:09:56;16.90;51.80
29201;DHT22;16244;51.956;12.980;2023-04-24T12:12:25;17.10;54.90
29201;DHT22;16244;51.956;12.980;2023-04-24T12:14:54;17.30;54.80
29201;DHT22;16244;51.956;12.980;2023-04-24T12:17:26;17.50;56.60
29201;DHT22;16244;51.956;12.980;2023-04-24T12:19:59;17.40;51.30
29201;DHT22;16244;51.956;12.980;2023-04-24T12:22:35;17.30;50.00
29201;DHT22;16244;51.956;12.980;2023-04-24T12:25:11;17.30;51.30
29201;DHT22;16244;51.956;12.980;2023-04-24T12:27:39;17.20;51.00
29201;DHT22;16244;51.956;12.980;2023-04-24T12:30:11;17.30;54.00
29201;DHT22;16244;51.956;12.980;2023-04-24T12:32:44;17.00;51.40
29201;DHT22;16244;51.956;12.980;2023-04-24T12:35:18;16.80;53.80
29201;DHT22;16244;51.956;12.980;2023-04-24T12:37:46;16.80;52.50
29201;DHT22;16244;51.956;12.980;2023-04-24T12:40:15;16.90;53.30
29201;DHT22;16244;51.956;12.980;2023-04-24T12:42:44;16.80;54.50
29201;DHT22;16244;51.956;12.980;2023-04-24T12:45:12;16.80;54.90
29201;DHT22;16244;51.956;12.980;2023-04-24T12:47:41;16.90;49.80
29201;DHT22;16244;51.956;12.980;2023-04-24T12:50:09;17.00;50.20
29201;DHT22;16244;51.956;12.980;2023-04-24T12:52:40;17.10;48.00
29201;DHT22;16244;51.956;12.980;2023-04-24T12:55:08;17.10;47.70
29201;DHT22;16244;51.956;12.980;2023-04-24T12:57:37;17.10;48.20
29201;DHT22;16244;51.956;12.980;2023-04-24T13:00:07;17.10;49.20
29201;DHT22;16244;51.956;12.980;2023-04-24T13:02:38;16.90;47.00
29201;DHT22;16244;51.956;12.980;2023-04-24T13:05:08;16.90;50.60
29201;DHT22;16244;51.956;12.980;2023-04-24T13:07:39;16.80;48.80
29201;DHT22;16244;51.956;12.980;2023-04-24T13:10:08;16.80;51.10
29201;DHT22;16244;51.956;12.980;2023-04-24T13:12:36;16.80;50.20
29201;DHT22;16244;51.956;12.980;2023-04-24T13:15:06;16.90;50.70
29201;DHT22;16244;51.956;12.980;2023-04-24T13:17:34;17.00;50.90
29201;DHT22;16244;51.956;12.980;2023-04-24T13:20:02;17.00;49.20
29201;DHT22;16244;51.956;12.980;2023-04-24T13:22:30;16.90;49.70
29201;DHT22;16244;51.956;12.980;2023-04-24T13:25:00;16.90;48.00
29201;DHT22;16244;51.956;12.980;2023-04-24T13:27:29;16.60;47.80
29201;DHT22;16244;51.956;12.980;2023-04-24T13:29:57;16.50;47.80
29201;DHT22;16244;51.956;12.980;2023-04-24T13:32:25;16.50;47.10
29201;DHT22;16244;51.956;12.980;2023-04-24T13:34:53;16.60;46.50
29201;DHT22;16244;51.956;12.980;2023-04-24T13:37:21;16.70;49.80
29201;DHT22;16244;51.956;12.980;2023-04-24T13:39:49;16.90;48.60
29201;DHT22;16244;51.956;12.980;2023-04-24T13:42:19;17.00;49.60
29201;DHT22;16244;51.956;12.980;2023-04-24T13:44:48;17.10;50.60
29201;DHT22;16244;51.956;12.980;2023-04-24T13:47:15;17.30;48.80
29201;DHT22;16244;51.956;12.980;2023-04-24T13:49:43;17.60;48.90
29201;DHT22;16244;51.956;12.980;2023-04-24T13:52:11;17.60;47.60
29201;DHT22;16244;51.956;12.980;2023-04-24T13:54:40;17.70;46.30
29201;DHT22;16244;51.956;12.980;2023-04-24T13:57:07;17.70;45.60
29201;DHT22;16244;51.956;12.980;2023-04-24T13:59:36;17.50;44.90
29201;DHT22;16244;51.956;12.980;2023-04-24T14:02:04;17.80;45.60
29201;DHT22;16244;51.956;12.980;2023-04-24T14:04:31;18.00;44.80
29201;DHT22;16244;51.956;12.980;2023-04-24T14:06:59;18.10;43.90
29201;DHT22;16244;51.956;12.980;2023-04-24T14:09:27;18.30;43.50
29201;DHT22;16244;51.956;12.980;2023-04-24T14:11:55;18.20;44.00
29201;DHT22;16244;51.956;12.980;2023-04-24T14:14:23;17.60;44.30
29201;DHT22;16244;51.956;12.980;2023-04-24T14:16:52;17.20;45.40
29201;DHT22;16244;51.956;12.980;2023-04-24T14:19:19;16.80;45.60
29201;DHT22;16244;51.956;12.980;2023-04-24T14:21:49;16.50;47.40
29201;DHT22;16244;51.956;12.980;2023-04-24T14:24:16;16.30;47.30
29201;DHT22;16244;51.956;12.980;2023-04-24T14:26:44;16.10;49.50
29201;DHT22;16244;51.956;12.980;2023-04-24T14:29:12;16.10;48.80
29201;DHT22;16244;51.956;12.980;2023-04-24T14:31:40;16.10;48.30
29201;DHT22;16244;51.956;12.980;2023-04-24T14:34:09;15.80;48.70
29201;DHT22;16244;51.956;12.980;2023-04-24T14:36:37;15.80;49.20
29201;DHT22;16244;51.956;12.980;2023-04-24T14:39:05;15.70;49.60
29201;DHT22;16244;51.956;12.980;2023-04-24T14:41:33;15.70;50.80
29201;DHT22;16244;51.956;12.980;2023-04-24T14:44:02;15.70;50.60
29201;DHT22;16244;51.956;12.980;2023-04-24T14:46:30;15.60;51.80
29201;DHT22;16244;51.956;12.980;2023-04-24T14:48:58;15.60;51.20
29201;DHT22;16244;51.956;12.980;2023-04-24T14:51:27;15.50;52.30
29201;DHT22;16244;51.956;12.980;2023-04-24T14:53:56;15.50;52.20
29201;DHT22;16244;51.956;12.980;2023-04-24T14:56:31;15.50;52.10
29201;DHT22;16244;51.956;12.980;2023-04-24T14:59:01;15.70;53.80
29201;DHT22;16244;51.956;12.980;2023-04-24T15:01:29;15.70;55.10
29201;DHT22;16244;51.956;12.980;2023-04-24T15:03:56;15.70;54.40
29201;DHT22;16244;51.956;12.980;2023-04-24T15:06:27;15.60;54.10
29201;DHT22;16244;51.956;12.980;2023-04-24T15:08:57;15.50;54.60
29201;DHT22;16244;51.956;12.980;2023-04-24T15:11:24;15.40;53.20
29201;DHT22;16244;51.956;12.980;2023-04-24T15:13:53;15.40;56.30
29201;DHT22;16244;51.956;12.980;2023-04-24T15:16:21;15.30;55.70
29201;DHT22;16244;51.956;12.980;2023-04-24T15:18:49;15.10;56.50
29201;DHT22;16244;51.956;12.980;2023-04-24T15:21:17;15.20;59.20
29201;DHT22;16244;51.956;12.980;2023-04-24T15:23:46;15.30;58.70
29201;DHT22;16244;51.956;12.980;2023-04-24T15:26:14;15.20;58.20